createdAt,value
2023-03-20T00:00:35.942Z,77.23
2023-03-20T00:05:59.380Z,77.08
2023-03-20T00:11:06.066Z,78.29
2023-03-20T00:16:13.896Z,78.26
2023-03-20T00:21:22.523Z,77.72
2023-03-20T00:26:35.101Z,78.46
2023-03-20T00:31:42.646Z,78.71
2023-03-20T00:36:51.277Z,78.10
2023-03-20T00:41:59.901Z,79.07
2023-03-20T00:47:13.817Z,79.13
2023-03-20T00:52:23.409Z,78.96
2023-03-20T00:57:37.811Z,79.23
2023-03-20T01:02:46.285Z,78.90
2023-03-20T01:07:54.384Z,77.66
2023-03-20T01:13:04.186Z,79.97
2023-03-20T01:18:15.317Z,78.99
2023-03-20T01:23:27.055Z,78.63
2023-03-20T01:28:34.676Z,78.34
2023-03-20T01:33:41.593Z,76.46
2023-03-20T01:38:53.386Z,77.00
2023-03-20T01:44:00.135Z,78.21
2023-03-20T01:49:32.591Z,78.30
2023-03-20T01:54:43.654Z,79.47
2023-03-20T01:59:58.536Z,78.93
2023-03-20T02:05:10.277Z,78.69
2023-03-20T02:10:20.098Z,79.65
2023-03-20T02:15:37.838Z,79.59
2023-03-20T02:21:53.471Z,80.25
2023-03-20T02:27:17.278Z,80.49
2023-03-20T02:33:13.135Z,80.58
2023-03-20T02:39:02.672Z,80.43
2023-03-20T02:44:16.386Z,80.14
2023-03-20T02:49:47.415Z,79.54
2023-03-20T02:55:07.946Z,79.73
2023-03-20T03:00:25.465Z,80.25
2023-03-20T03:05:39.854Z,81.17
2023-03-20T03:10:52.857Z,80.51
2023-03-20T03:16:07.237Z,79.40
2023-03-20T03:21:20.275Z,80.18
2023-03-20T03:26:36.160Z,79.87
2023-03-20T03:31:43.457Z,80.13
2023-03-20T03:37:01.953Z,80.15
2023-03-20T03:42:17.642Z,80.58
2023-03-20T03:47:31.419Z,80.35
2023-03-20T03:52:40.521Z,79.88
2023-03-20T03:57:51.247Z,81.16
2023-03-20T04:03:00.316Z,81.36
2023-03-20T04:08:08.594Z,81.12
2023-03-20T04:13:16.843Z,80.50
2023-03-20T04:18:23.630Z,80.18
2023-03-20T04:23:30.252Z,81.03
2023-03-20T04:28:38.746Z,81.27
2023-03-20T04:34:04.290Z,81.87
2023-03-20T04:39:10.910Z,81.89
2023-03-20T04:44:19.992Z,81.98
2023-03-20T04:49:29.178Z,81.96
2023-03-20T04:54:36.469Z,82.81
2023-03-20T04:59:44.870Z,83.31
2023-03-20T05:04:52.221Z,82.96
2023-03-20T05:09:58.908Z,82.61
2023-03-20T05:15:08.703Z,83.84
2023-03-20T05:20:52.775Z,84.07
2023-03-20T05:26:19.108Z,83.71
2023-03-20T05:31:49.943Z,84.21
2023-03-20T05:37:15.378Z,83.95
2023-03-20T05:42:42.186Z,84.37
2023-03-20T05:48:08.993Z,84.35
2023-03-20T05:53:20.778Z,84.41
2023-03-20T05:58:29.695Z,83.89
2023-03-20T06:04:08.839Z,83.97
2023-03-20T06:09:44.620Z,83.78
2023-03-20T06:14:53.072Z,83.52
2023-03-20T06:20:02.034Z,83.92
2023-03-20T06:25:10.107Z,84.02
2023-03-20T06:30:21.451Z,84.24
2023-03-20T06:35:32.498Z,84.15
2023-03-20T06:40:39.096Z,83.55
2023-03-20T06:45:46.116Z,83.00
2023-03-20T06:51:01.737Z,83.38
2023-03-20T06:56:15.123Z,83.75
2023-03-20T07:01:21.465Z,83.86
2023-03-20T07:06:29.404Z,84.31
2023-03-20T07:11:35.919Z,84.90
2023-03-20T07:16:42.654Z,84.93
2023-03-20T07:21:50.735Z,84.59
2023-03-20T07:26:57.688Z,84.46
2023-03-20T07:32:05.196Z,84.13
2023-03-20T07:37:20.472Z,83.23
2023-03-20T07:42:40.407Z,82.51
2023-03-20T07:47:53.142Z,81.67
2023-03-20T07:53:01.402Z,80.73
2023-03-20T07:58:08.766Z,79.55
2023-03-20T08:03:15.259Z,77.85
2023-03-20T08:08:23.491Z,77.48
2023-03-20T08:13:29.921Z,76.56
2023-03-20T08:18:36.435Z,75.90
2023-03-20T08:23:44.518Z,74.91
2023-03-20T08:28:52.263Z,73.68
2023-03-20T08:33:59.380Z,72.15
2023-03-20T08:39:08.611Z,71.14
2023-03-20T08:44:15.455Z,70.47
2023-03-20T08:49:22.145Z,69.82
2023-03-20T08:54:31.129Z,69.09
2023-03-20T08:59:37.924Z,68.86
2023-03-20T09:04:44.479Z,68.98
2023-03-20T09:09:52.342Z,69.36
2023-03-20T09:14:58.792Z,68.65
2023-03-20T09:20:06.684Z,67.58
2023-03-20T09:25:14.966Z,67.70
2023-03-20T09:30:21.672Z,66.84
2023-03-20T09:35:28.058Z,66.15
2023-03-20T09:40:51.687Z,66.34
2023-03-20T09:46:12.068Z,66.22
2023-03-20T09:51:31.754Z,66.71
2023-03-20T09:56:39.856Z,66.91
2023-03-20T10:01:52.425Z,67.00
2023-03-20T10:06:59.225Z,66.50
2023-03-20T10:12:43.151Z,66.10
2023-03-20T10:17:58.977Z,65.93
2023-03-20T10:23:09.465Z,65.27
2023-03-20T10:28:23.672Z,65.99
2023-03-20T10:33:47.286Z,64.99
2023-03-20T10:39:01.088Z,64.62
2023-03-20T10:44:18.481Z,63.88
2023-03-20T10:49:35.439Z,63.16
2023-03-20T10:54:46.406Z,63.29
2023-03-20T10:59:58.649Z,62.87
2023-03-20T11:05:12.958Z,62.62
2023-03-20T11:10:19.634Z,62.03
2023-03-20T11:15:30.398Z,61.96
2023-03-20T11:20:41.195Z,60.21
2023-03-20T11:25:54.845Z,60.17
2023-03-20T11:31:07.261Z,58.96
2023-03-20T11:36:26.625Z,59.09
2023-03-20T11:41:35.294Z,58.59
2023-03-20T11:46:44.400Z,59.11
2023-03-20T11:51:50.961Z,60.18
2023-03-20T11:56:59.664Z,60.53
2023-03-20T12:02:24.528Z,61.43
2023-03-20T12:07:37.029Z,61.39
2023-03-20T12:12:51.046Z,61.62
2023-03-20T12:18:03.228Z,62.13
2023-03-20T12:23:16.264Z,61.97
2023-03-20T12:28:29.764Z,62.96
2023-03-20T12:33:51.116Z,63.45
2023-03-20T12:38:57.687Z,63.85
2023-03-20T12:44:35.561Z,65.06
2023-03-20T12:49:56.313Z,65.74
2023-03-20T12:55:26.199Z,65.83
2023-03-20T13:00:39.297Z,66.01
2023-03-20T13:05:54.443Z,66.49
2023-03-20T13:11:16.185Z,65.91
2023-03-20T13:16:36.924Z,66.50
2023-03-20T13:21:57.018Z,67.02
2023-03-20T13:27:16.412Z,67.64
2023-03-20T13:32:39.879Z,70.73
2023-03-20T13:37:54.000Z,71.53
2023-03-20T13:43:09.971Z,73.03
2023-03-20T13:48:30.796Z,74.34
2023-03-20T13:53:54.813Z,75.23
2023-03-20T13:59:36.437Z,75.37
2023-03-20T14:04:43.609Z,75.82
2023-03-20T14:09:55.429Z,75.98
2023-03-20T14:15:05.575Z,76.35
2023-03-20T14:20:25.228Z,77.12
2023-03-20T14:25:43.921Z,77.45
2023-03-20T14:30:51.975Z,77.61
2023-03-20T14:36:23.904Z,78.78
2023-03-20T14:41:51.224Z,78.94
2023-03-20T14:47:04.763Z,78.95
2023-03-20T14:52:39.527Z,78.64
2023-03-20T14:57:56.641Z,79.43
2023-03-20T15:03:11.592Z,80.14
2023-03-20T15:08:25.854Z,81.45
2023-03-20T15:13:36.288Z,81.70
2023-03-20T15:18:45.492Z,82.63
2023-03-20T15:23:53.242Z,83.42
2023-03-20T15:29:05.429Z,84.15
2023-03-20T15:34:21.472Z,85.12
2023-03-20T15:39:29.619Z,85.61
2023-03-20T15:44:40.787Z,85.88
2023-03-20T15:49:54.290Z,86.09
2023-03-20T15:55:07.778Z,86.72
2023-03-20T16:00:22.812Z,87.42
2023-03-20T16:05:31.967Z,87.73
2023-03-20T16:10:38.950Z,87.30
2023-03-20T16:15:47.991Z,87.43
2023-03-20T16:20:58.301Z,87.59
2023-03-20T16:26:08.085Z,87.33
2023-03-20T16:31:22.140Z,87.16
2023-03-20T16:36:33.687Z,86.71
2023-03-20T16:41:42.429Z,86.74
2023-03-20T16:47:04.489Z,87.13
2023-03-20T16:52:16.728Z,86.68
2023-03-20T16:57:23.255Z,87.20
2023-03-20T17:02:38.680Z,86.96
2023-03-20T17:07:46.076Z,88.08
2023-03-20T17:12:53.687Z,87.06
2023-03-20T17:18:04.652Z,87.12
2023-03-20T17:23:16.647Z,86.97
2023-03-20T17:28:30.408Z,86.11
2023-03-20T17:33:38.734Z,86.78
2023-03-20T17:38:45.879Z,86.68
2023-03-20T17:43:53.960Z,85.98
2023-03-20T17:49:07.050Z,85.93
2023-03-20T17:54:15.645Z,86.02
2023-03-20T17:59:25.318Z,85.59
2023-03-20T18:04:35.350Z,85.47
2023-03-20T18:09:46.083Z,84.79
2023-03-20T18:14:56.278Z,84.33
2023-03-20T18:20:08.748Z,84.49
2023-03-20T18:25:18.392Z,84.50
2023-03-20T18:30:32.554Z,85.39
2023-03-20T18:35:49.371Z,84.63
2023-03-20T18:41:13.329Z,85.28
2023-03-20T18:46:31.641Z,85.95
2023-03-20T18:51:42.930Z,85.38
2023-03-20T18:56:55.324Z,86.26
2023-03-20T19:02:04.369Z,86.25
2023-03-20T19:07:16.698Z,88.42
2023-03-20T19:12:26.585Z,87.61
2023-03-20T19:17:45.457Z,88.39
2023-03-20T19:22:58.268Z,89.07
2023-03-20T19:28:37.655Z,89.11
2023-03-20T19:33:50.807Z,89.27
2023-03-20T19:39:04.902Z,90.46
2023-03-20T19:44:13.555Z,90.99
2023-03-20T19:49:30.776Z,90.68
2023-03-20T19:55:00.241Z,90.58
2023-03-20T20:05:49.885Z,91.42
2023-03-20T20:11:00.860Z,91.66
2023-03-20T20:16:14.600Z,91.53
2023-03-20T20:27:18.237Z,91.74
2023-03-20T20:32:31.621Z,92.00
2023-03-20T20:43:38.931Z,90.72
2023-03-20T20:48:46.428Z,90.75
2023-03-20T20:53:54.767Z,90.51
2023-03-20T20:59:04.225Z,89.61
2023-03-20T21:04:13.995Z,89.94
2023-03-20T21:09:22.193Z,89.76
2023-03-20T21:14:32.111Z,89.84
2023-03-20T21:19:45.726Z,90.04
2023-03-20T21:25:11.121Z,90.07
2023-03-20T21:30:22.853Z,90.16
2023-03-20T21:35:29.808Z,89.66
2023-03-20T21:40:36.963Z,90.42
2023-03-20T22:02:23.492Z,89.05
2023-03-20T22:13:51.294Z,89.21
2023-03-20T22:30:01.677Z,90.45
2023-03-20T22:35:47.173Z,89.55
2023-03-20T22:46:03.409Z,89.55
2023-03-20T22:52:26.473Z,89.84
2023-03-20T22:57:45.502Z,90.20
2023-03-20T23:03:06.731Z,90.39
2023-03-20T23:08:22.786Z,90.98
2023-03-20T23:13:48.582Z,90.31
2023-03-20T23:18:55.037Z,89.82
2023-03-20T23:24:03.127Z,90.17
2023-03-20T23:29:09.918Z,90.17
2023-03-20T23:34:18.082Z,90.17
2023-03-20T23:39:26.328Z,89.65
2023-03-20T23:44:32.694Z,90.00
2023-03-20T23:49:40.176Z,90.45
2023-03-20T23:54:48.136Z,89.49
2023-03-20T23:59:54.463Z,89.61
